Portada
METAR-TAF:

METAR-TAF

Aeroports :

El Oued, Algèria

latitud: 33-30-47N, longitud: 006-46-57E, altitud: 62 m

Observació

L'informe es va fer fa 32 minuts, a les 01:00 UTC
Vent 4 kt del Oest/Sud-Oest
Temperatura 7°C
Humitat 70%
Pressió 1016 hPa
Visibilitat 10 km o més
Escasses núvols a una alçada de 4000 ft

METAR: DAUO 200100Z 24004KT 9999 FEW040 07/02 Q1016

Hora: 02:32 (01:32 UTC)

Pronòstic

L'informe es va fer fa 2 hores i 32 minuts, a les 23:00 UTC
Pronòstic vàlid del 20 a les 00 UTC al 20 a les 09 UTC
Vent 6 kt del Oest
Visibilitat 10 km o més
Núvols disperses a una alçada de 4000 ft
Núvols disperses a una alçada de 10000 ft

TAF: DAUO 192300Z 2000/2009 26006KT 9999 SCT040 SCT100

Observacions i pronòstics meteorològics de més de 4000 aeroports (METAR i TAF).

Les estacions disponibles són els punts grocs i vermells al mapa.

Posi el ratolí al punt desitjat per veure el nom de l'estació.

Feu clic per veure les observacions i els pronòstics meteorològics.

Per canviar el mapa: feu clic els botons verds amb una creu de color negre per apropar; al botó verd amb un guió per allunyar la imatge; o en les fletxes verdes per a mapes adjacents.


METAR-TAF: